createdAt,value
2022-08-22T00:02:34.794Z,25.55
2022-08-22T00:03:08.938Z,28.30
2022-08-22T00:03:10.386Z,27.32
2022-08-22T00:05:23.551Z,25.47
2022-08-22T00:08:51.044Z,25.41
2022-08-22T00:11:48.294Z,25.37
2022-08-22T00:14:45.036Z,25.31
2022-08-22T00:17:24.154Z,25.29
2022-08-22T00:20:04.257Z,25.32
2022-08-22T00:22:43.250Z,25.29
2022-08-22T00:25:44.734Z,25.30
2022-08-22T00:28:24.233Z,25.30
2022-08-22T00:31:07.768Z,25.32
2022-08-22T00:34:12.616Z,25.32
2022-08-22T00:37:01.735Z,25.33
2022-08-22T00:39:55.427Z,25.34
2022-08-22T00:42:31.680Z,25.32
2022-08-22T00:45:17.273Z,25.31
2022-08-22T00:48:35.727Z,25.32
2022-08-22T00:51:40.542Z,25.33
2022-08-22T00:54:41.476Z,25.33
2022-08-22T00:57:37.328Z,25.32
2022-08-22T01:00:26.307Z,25.32
2022-08-22T01:03:13.979Z,25.31
2022-08-22T01:06:35.848Z,25.33
2022-08-22T01:09:59.626Z,25.31
2022-08-22T01:13:15.148Z,25.30
2022-08-22T01:15:45.035Z,25.32
2022-08-22T01:18:43.259Z,25.33
2022-08-22T01:22:01.284Z,25.32
2022-08-22T01:25:01.240Z,25.31
2022-08-22T01:27:58.360Z,25.32
2022-08-22T01:30:48.562Z,25.30
2022-08-22T01:33:34.038Z,25.30
2022-08-22T01:36:51.785Z,25.30
2022-08-22T01:39:54.023Z,25.28
2022-08-22T01:42:53.290Z,25.26
2022-08-22T01:46:02.091Z,25.24
2022-08-22T01:48:51.864Z,25.21
2022-08-22T01:51:24.645Z,25.18
2022-08-22T01:54:05.201Z,25.11
2022-08-22T01:56:40.459Z,25.10
2022-08-22T01:59:13.895Z,25.09
2022-08-22T02:02:20.952Z,25.07
2022-08-22T02:05:01.615Z,25.06
2022-08-22T02:08:04.870Z,25.04
2022-08-22T02:10:50.072Z,25.01
2022-08-22T02:13:31.028Z,25.01
2022-08-22T02:16:45.578Z,24.99
2022-08-22T02:19:14.510Z,24.98
2022-08-22T02:22:06.184Z,24.99
2022-08-22T02:24:33.450Z,24.97
2022-08-22T02:27:27.200Z,24.96
2022-08-22T02:30:48.397Z,24.93
2022-08-22T02:33:38.316Z,24.94
2022-08-22T02:36:25.244Z,24.94
2022-08-22T02:42:38.276Z,24.86
2022-08-22T02:45:22.338Z,24.91
2022-08-22T02:48:04.160Z,24.89
2022-08-22T03:09:33.846Z,24.70
2022-08-22T03:12:15.438Z,24.69
2022-08-22T03:15:13.963Z,24.70
2022-08-22T03:17:58.433Z,24.69
2022-08-22T03:20:49.452Z,24.66
2022-08-22T03:23:25.464Z,24.66
2022-08-22T03:26:18.673Z,24.63
2022-08-22T03:28:59.364Z,24.62
2022-08-22T03:31:31.275Z,24.56
2022-08-22T03:34:25.161Z,24.56
2022-08-22T03:37:13.676Z,24.54
2022-08-22T03:40:00.261Z,24.53
2022-08-22T03:43:11.790Z,24.49
2022-08-22T03:46:02.646Z,24.46
2022-08-22T03:48:35.699Z,24.45
2022-08-22T03:51:17.722Z,24.44
2022-08-22T03:54:34.389Z,24.41
2022-08-22T03:57:07.438Z,24.37
2022-08-22T04:00:13.902Z,24.34
2022-08-22T04:02:44.352Z,24.29
2022-08-22T04:05:44.149Z,24.25
2022-08-22T04:08:43.932Z,24.20
2022-08-22T04:11:56.352Z,24.15
2022-08-22T04:15:03.487Z,24.10
2022-08-22T04:17:55.642Z,24.07
2022-08-22T04:20:52.357Z,24.05
2022-08-22T04:23:46.991Z,24.01
2022-08-22T04:26:19.695Z,24.00
2022-08-22T04:28:58.605Z,23.98
2022-08-22T04:31:33.062Z,23.93
2022-08-22T04:34:10.048Z,23.90
2022-08-22T04:36:48.764Z,23.86
2022-08-22T04:39:22.787Z,23.83
2022-08-22T04:42:31.884Z,23.79
2022-08-22T04:45:13.430Z,23.73
2022-08-22T04:47:56.859Z,23.72
2022-08-22T04:50:43.364Z,23.72
2022-08-22T04:53:50.400Z,23.70
2022-08-22T04:56:58.028Z,23.69
2022-08-22T04:59:26.341Z,23.69
2022-08-22T05:02:06.615Z,23.71
2022-08-22T05:04:43.664Z,23.71
2022-08-22T05:07:18.412Z,23.71
2022-08-22T05:09:54.846Z,23.72
2022-08-22T05:12:41.039Z,23.70
2022-08-22T05:15:15.194Z,23.70
2022-08-22T05:17:50.147Z,23.69
2022-08-22T05:20:26.679Z,23.69
2022-08-22T05:23:05.918Z,23.69
2022-08-22T05:25:39.351Z,23.71
2022-08-22T05:28:18.296Z,23.72
2022-08-22T05:30:48.265Z,23.72
2022-08-22T05:33:45.981Z,23.74
2022-08-22T05:37:05.071Z,23.75
2022-08-22T05:39:39.783Z,23.78
2022-08-22T05:42:15.377Z,23.81
2022-08-22T05:44:42.634Z,23.83
2022-08-22T05:47:37.163Z,23.84
2022-08-22T05:50:20.760Z,23.87
2022-08-22T05:53:09.067Z,23.89
2022-08-22T05:56:15.863Z,23.94
2022-08-22T05:58:53.556Z,23.98
2022-08-22T06:02:07.673Z,23.99
2022-08-22T06:04:57.387Z,24.03
2022-08-22T06:07:49.161Z,24.05
2022-08-22T06:10:40.839Z,24.07
2022-08-22T06:13:25.431Z,24.09
2022-08-22T06:16:03.851Z,24.14
2022-08-22T06:18:32.701Z,24.18
2022-08-22T06:21:04.259Z,24.21
2022-08-22T06:23:53.238Z,24.25
2022-08-22T06:26:21.542Z,24.31
2022-08-22T06:28:54.755Z,24.35
2022-08-22T06:31:30.803Z,24.39
2022-08-22T06:34:10.471Z,24.42
2022-08-22T06:36:40.933Z,24.44
2022-08-22T06:39:30.507Z,24.47
2022-08-22T06:42:13.333Z,24.50
2022-08-22T06:44:45.591Z,24.51
2022-08-22T06:47:43.481Z,24.57
2022-08-22T06:50:30.987Z,24.59
2022-08-22T06:53:11.945Z,24.62
2022-08-22T06:55:46.906Z,24.67
2022-08-22T06:58:33.845Z,24.70
2022-08-22T07:01:13.904Z,24.72
2022-08-22T07:03:50.301Z,24.78
2022-08-22T07:06:43.868Z,24.80
2022-08-22T07:09:25.223Z,24.83
2022-08-22T07:11:55.277Z,24.88
2022-08-22T07:14:39.330Z,24.93
2022-08-22T07:17:09.301Z,24.95
2022-08-22T07:19:48.048Z,24.99
2022-08-22T07:22:30.729Z,25.05
2022-08-22T07:25:11.079Z,25.07
2022-08-22T07:28:09.655Z,25.11
2022-08-22T07:31:16.047Z,25.16
2022-08-22T07:33:48.427Z,25.23
2022-08-22T07:36:49.331Z,25.26
2022-08-22T07:39:28.233Z,25.28
2022-08-22T07:42:10.480Z,25.35
2022-08-22T07:45:09.123Z,25.41
2022-08-22T07:48:03.631Z,25.45
2022-08-22T07:50:36.611Z,25.47
2022-08-22T07:53:30.570Z,25.54
2022-08-22T07:56:00.644Z,25.60
2022-08-22T07:58:33.902Z,25.65
2022-08-22T08:01:01.692Z,25.66
2022-08-22T08:03:31.071Z,25.70
2022-08-22T08:06:01.098Z,25.73
2022-08-22T08:08:42.440Z,25.79
2022-08-22T08:11:13.975Z,25.91
2022-08-22T08:13:51.948Z,25.88
2022-08-22T08:16:25.765Z,25.92
2022-08-22T08:18:57.429Z,25.97
2022-08-22T08:21:38.425Z,25.98
2022-08-22T08:24:13.422Z,26.05
2022-08-22T08:27:04.081Z,26.13
2022-08-22T08:29:32.405Z,26.19
2022-08-22T08:32:01.517Z,26.21
2022-08-22T08:34:32.509Z,26.27
2022-08-22T08:37:20.555Z,26.33
2022-08-22T08:39:53.620Z,26.38
2022-08-22T08:42:57.990Z,26.43
2022-08-22T08:45:56.494Z,26.50
2022-08-22T08:48:54.385Z,26.56
2022-08-22T08:51:46.319Z,26.59
2022-08-22T08:55:02.462Z,26.61
2022-08-22T08:58:07.054Z,26.61
2022-08-22T09:00:43.009Z,26.68
2022-08-22T09:03:30.533Z,26.71
2022-08-22T09:06:25.112Z,26.72
2022-08-22T09:09:36.350Z,26.79
2022-08-22T09:12:32.458Z,26.87
2022-08-22T09:15:02.714Z,26.96
2022-08-22T09:18:13.855Z,26.99
2022-08-22T09:21:03.155Z,26.98
2022-08-22T09:23:57.145Z,27.08
2022-08-22T09:26:49.112Z,27.14
2022-08-22T09:29:31.021Z,27.20
2022-08-22T09:32:35.702Z,27.27
2022-08-22T09:35:10.134Z,27.34
2022-08-22T09:38:00.809Z,27.42
2022-08-22T09:41:02.325Z,27.52
2022-08-22T09:44:23.026Z,27.59
2022-08-22T09:47:48.113Z,27.68
2022-08-22T09:50:33.289Z,27.76
2022-08-22T09:53:19.370Z,27.81
2022-08-22T09:55:51.302Z,27.85
2022-08-22T09:58:49.644Z,27.93
2022-08-22T10:01:26.812Z,28.02
2022-08-22T10:04:14.749Z,28.07
2022-08-22T10:07:11.199Z,28.14
2022-08-22T10:10:11.481Z,28.27
2022-08-22T10:13:10.377Z,28.34
2022-08-22T10:15:52.607Z,28.41
2022-08-22T10:18:52.836Z,28.49
2022-08-22T10:21:58.906Z,28.56
2022-08-22T10:24:52.143Z,28.62
2022-08-22T10:27:39.985Z,28.65
2022-08-22T10:30:13.578Z,28.74
2022-08-22T10:33:17.268Z,28.79
2022-08-22T10:35:44.108Z,28.83
2022-08-22T10:38:46.868Z,28.92
2022-08-22T10:41:39.960Z,28.97
2022-08-22T10:44:14.929Z,29.00
2022-08-22T10:46:47.754Z,29.08
2022-08-22T10:50:01.548Z,29.16
2022-08-22T10:52:50.497Z,29.26
2022-08-22T10:55:26.067Z,29.33
2022-08-22T10:58:06.111Z,29.39
2022-08-22T11:01:00.548Z,29.48
2022-08-22T11:04:00.943Z,29.59
2022-08-22T11:06:46.909Z,29.66
2022-08-22T11:09:33.305Z,29.72
2022-08-22T11:12:34.666Z,29.78
2022-08-22T11:15:49.351Z,29.86
2022-08-22T11:19:02.848Z,29.91
2022-08-22T11:22:00.327Z,29.96
2022-08-22T11:24:34.534Z,29.95
2022-08-22T11:27:39.524Z,29.99
2022-08-22T11:30:18.403Z,30.13
2022-08-22T11:32:58.940Z,30.19
2022-08-22T11:35:43.147Z,30.26
2022-08-22T11:38:50.178Z,30.36
2022-08-22T11:41:53.007Z,30.41
2022-08-22T11:44:31.325Z,30.36
2022-08-22T11:47:08.936Z,30.47
2022-08-22T11:50:14.382Z,30.57
2022-08-22T11:53:32.863Z,30.65
2022-08-22T11:56:12.304Z,30.65
2022-08-22T11:58:59.827Z,30.76
2022-08-22T12:01:49.231Z,30.83
2022-08-22T12:04:28.799Z,30.90
2022-08-22T12:07:21.424Z,30.97
2022-08-22T12:10:15.049Z,31.05
2022-08-22T12:13:13.613Z,31.14
2022-08-22T12:16:24.752Z,31.23
2022-08-22T12:20:05.629Z,31.33
2022-08-22T12:23:03.521Z,31.43
2022-08-22T12:26:22.163Z,31.50
2022-08-22T12:29:00.652Z,31.54
2022-08-22T12:32:16.941Z,31.60
2022-08-22T12:35:18.717Z,31.69
2022-08-22T12:38:27.989Z,31.79
2022-08-22T12:41:09.420Z,31.91
2022-08-22T12:44:17.201Z,31.99
2022-08-22T12:47:11.890Z,32.06
2022-08-22T12:50:06.846Z,32.11
2022-08-22T12:53:10.771Z,32.16
2022-08-22T12:56:01.020Z,32.24
2022-08-22T12:58:51.401Z,32.26
2022-08-22T13:01:19.362Z,32.24
2022-08-22T13:04:01.233Z,32.24
2022-08-22T13:06:37.869Z,32.27
2022-08-22T13:09:28.573Z,32.30
2022-08-22T13:12:29.155Z,32.26
2022-08-22T13:15:13.463Z,32.26
2022-08-22T13:17:44.747Z,32.36
2022-08-22T13:20:35.112Z,32.30
2022-08-22T13:23:14.895Z,32.34
2022-08-22T13:25:56.751Z,32.43
2022-08-22T13:28:25.521Z,32.56
2022-08-22T13:30:56.070Z,32.55
2022-08-22T13:33:33.659Z,32.59
2022-08-22T13:36:10.847Z,32.56
2022-08-22T13:39:12.095Z,32.58
2022-08-22T13:41:51.259Z,32.67
2022-08-22T13:44:25.402Z,32.77
2022-08-22T13:47:13.811Z,32.83
2022-08-22T13:49:45.938Z,32.92
2022-08-22T13:52:38.928Z,33.00
2022-08-22T13:55:29.991Z,33.04
2022-08-22T13:58:11.207Z,33.10
2022-08-22T14:01:13.954Z,33.15
2022-08-22T14:04:28.309Z,33.15
2022-08-22T14:07:04.669Z,33.06
2022-08-22T14:09:54.343Z,33.12
2022-08-22T14:12:50.929Z,33.21
2022-08-22T14:15:26.591Z,33.30
2022-08-22T14:18:15.156Z,33.38
2022-08-22T14:20:45.857Z,33.34
2022-08-22T14:23:29.232Z,33.40
2022-08-22T14:25:57.713Z,33.41
2022-08-22T14:28:33.766Z,33.43
2022-08-22T14:31:13.268Z,33.44
2022-08-22T14:33:51.114Z,33.47
2022-08-22T14:36:29.793Z,33.48
2022-08-22T14:39:11.196Z,33.53
2022-08-22T14:41:58.653Z,33.53
2022-08-22T14:44:47.991Z,33.49
2022-08-22T14:48:09.899Z,33.46
2022-08-22T14:50:42.273Z,33.44
2022-08-22T14:53:19.179Z,33.45
2022-08-22T14:56:18.529Z,33.41
2022-08-22T14:59:02.690Z,33.28
2022-08-22T15:01:35.106Z,33.20
2022-08-22T15:04:17.712Z,33.09
2022-08-22T15:06:54.874Z,33.01
2022-08-22T15:09:36.616Z,32.97
2022-08-22T15:12:21.525Z,32.95
2022-08-22T15:14:55.485Z,32.92
2022-08-22T15:17:52.717Z,32.84
2022-08-22T15:20:36.446Z,32.78
2022-08-22T15:23:21.328Z,32.74
2022-08-22T15:26:04.358Z,32.67
2022-08-22T15:28:52.445Z,32.60
2022-08-22T15:31:21.353Z,32.55
2022-08-22T15:33:49.794Z,32.50
2022-08-22T15:36:25.018Z,32.48
2022-08-22T15:39:42.746Z,32.45
2022-08-22T15:42:10.791Z,32.41
2022-08-22T15:44:44.309Z,32.40
2022-08-22T15:47:31.541Z,32.34
2022-08-22T15:50:14.694Z,32.31
2022-08-22T15:53:07.063Z,32.29
2022-08-22T15:55:35.634Z,32.27
2022-08-22T15:58:12.786Z,32.25
2022-08-22T16:00:45.155Z,32.20
2022-08-22T16:03:27.608Z,32.17
2022-08-22T16:06:04.527Z,32.16
2022-08-22T16:08:50.420Z,32.12
2022-08-22T16:11:33.428Z,32.11
2022-08-22T16:14:35.050Z,32.09
2022-08-22T16:17:29.882Z,32.08
2022-08-22T16:20:12.046Z,32.05
2022-08-22T16:22:56.585Z,32.04
2022-08-22T16:25:47.549Z,32.02
2022-08-22T16:28:56.452Z,32.02
2022-08-22T16:31:35.788Z,32.00
2022-08-22T16:34:18.299Z,32.00
2022-08-22T16:37:03.698Z,31.97
2022-08-22T16:39:42.843Z,31.95
2022-08-22T16:42:13.025Z,31.94
2022-08-22T16:44:46.098Z,31.91
2022-08-22T16:47:23.971Z,31.83
2022-08-22T16:49:50.973Z,31.80
2022-08-22T16:52:21.145Z,31.79
2022-08-22T16:54:57.708Z,31.77
2022-08-22T16:58:05.286Z,31.74
2022-08-22T17:00:58.086Z,31.72
2022-08-22T17:03:45.905Z,31.65
2022-08-22T17:06:38.614Z,31.61
2022-08-22T17:09:48.890Z,31.58
2022-08-22T17:12:50.572Z,31.53
2022-08-22T17:15:52.421Z,31.49
2022-08-22T17:18:59.186Z,31.43
2022-08-22T17:21:40.809Z,31.38
2022-08-22T17:24:44.820Z,31.34
2022-08-22T17:27:34.998Z,31.28
2022-08-22T17:30:09.726Z,31.24
2022-08-22T17:32:59.804Z,31.18
2022-08-22T17:36:04.208Z,31.13
2022-08-22T17:38:46.171Z,31.06
2022-08-22T17:41:41.046Z,31.03
2022-08-22T17:44:44.855Z,30.96
2022-08-22T17:47:22.007Z,30.91
2022-08-22T17:50:23.899Z,30.87
2022-08-22T17:53:00.410Z,30.82
2022-08-22T17:55:31.513Z,30.77
2022-08-22T17:58:37.609Z,30.71
2022-08-22T18:01:15.085Z,30.66
2022-08-22T18:03:51.641Z,30.60
2022-08-22T18:06:26.351Z,30.53
2022-08-22T18:09:15.438Z,30.48
2022-08-22T18:11:45.466Z,30.41
2022-08-22T18:14:25.470Z,30.35
2022-08-22T18:16:55.494Z,30.30
2022-08-22T18:19:59.868Z,30.23
2022-08-22T18:22:44.356Z,30.18
2022-08-22T18:25:39.712Z,30.14
2022-08-22T18:28:40.973Z,30.07
2022-08-22T18:31:45.687Z,30.01
2022-08-22T18:34:30.332Z,29.96
2022-08-22T18:37:33.028Z,29.90
2022-08-22T18:40:08.470Z,29.86
2022-08-22T18:43:06.472Z,29.78
2022-08-22T18:46:00.151Z,29.71
2022-08-22T18:48:54.357Z,29.66
2022-08-22T18:51:38.711Z,29.62
2022-08-22T18:54:06.840Z,29.56
2022-08-22T18:56:49.716Z,29.51
2022-08-22T18:59:37.558Z,29.45
2022-08-22T19:02:33.727Z,29.39
2022-08-22T19:05:48.611Z,29.33
2022-08-22T19:08:28.932Z,29.25
2022-08-22T19:11:02.434Z,29.21
2022-08-22T19:13:41.672Z,29.12
2022-08-22T19:16:45.456Z,29.08
2022-08-22T19:20:01.157Z,29.04
2022-08-22T19:22:34.439Z,28.97
2022-08-22T19:25:12.544Z,28.92
2022-08-22T19:27:44.897Z,28.88
2022-08-22T19:30:33.560Z,28.86
2022-08-22T19:33:40.083Z,28.82
2022-08-22T19:36:12.940Z,28.79
2022-08-22T19:38:58.221Z,28.72
2022-08-22T19:41:50.806Z,28.68
2022-08-22T19:44:17.951Z,28.63
2022-08-22T19:47:02.514Z,28.60
2022-08-22T19:49:36.134Z,28.53
2022-08-22T19:52:12.248Z,28.49
2022-08-22T19:55:21.587Z,28.43
2022-08-22T19:57:59.472Z,28.37
2022-08-22T20:00:56.555Z,28.29
2022-08-22T20:03:55.927Z,28.25
2022-08-22T20:06:45.751Z,28.20
2022-08-22T20:09:46.190Z,28.15
2022-08-22T20:12:34.105Z,28.10
2022-08-22T20:15:19.176Z,28.07
2022-08-22T20:18:11.564Z,28.04
2022-08-22T20:20:39.463Z,27.99
2022-08-22T20:23:18.252Z,27.95
2022-08-22T20:25:51.003Z,27.92
2022-08-22T20:28:39.055Z,27.88
2022-08-22T20:31:27.561Z,27.82
2022-08-22T20:34:12.420Z,27.78
2022-08-22T20:36:45.477Z,27.74
2022-08-22T20:39:36.827Z,27.69
2022-08-22T20:42:10.144Z,27.66
2022-08-22T20:44:44.345Z,27.63
2022-08-22T20:47:26.899Z,27.61
2022-08-22T20:50:11.920Z,27.58
2022-08-22T20:52:52.003Z,27.54
2022-08-22T20:55:31.521Z,27.52
2022-08-22T20:58:07.041Z,27.45
2022-08-22T21:00:42.828Z,27.44
2022-08-22T21:03:29.097Z,27.44
2022-08-22T21:05:56.215Z,27.39
2022-08-22T21:08:26.615Z,27.37
2022-08-22T21:11:22.596Z,27.36
2022-08-22T21:13:51.656Z,27.32
2022-08-22T21:16:31.555Z,27.29
2022-08-22T21:19:03.566Z,27.27
2022-08-22T21:21:34.400Z,27.25
2022-08-22T21:24:07.115Z,27.23
2022-08-22T21:26:56.410Z,27.20
2022-08-22T21:29:32.887Z,27.17
2022-08-22T21:32:14.125Z,27.16
2022-08-22T21:34:45.643Z,27.15
2022-08-22T21:37:28.658Z,27.13
2022-08-22T21:40:14.866Z,27.12
2022-08-22T21:42:58.293Z,27.07
2022-08-22T21:45:37.508Z,27.02
2022-08-22T21:49:15.684Z,26.97
2022-08-22T21:51:45.823Z,26.91
2022-08-22T21:54:24.920Z,26.89
2022-08-22T21:56:59.648Z,26.89
2022-08-22T21:59:51.790Z,26.86
2022-08-22T22:02:39.618Z,26.83
2022-08-22T22:05:14.914Z,26.82
2022-08-22T22:07:46.418Z,26.79
2022-08-22T22:10:17.491Z,26.79
2022-08-22T22:12:48.866Z,26.77
2022-08-22T22:15:21.051Z,26.74
2022-08-22T22:17:48.273Z,26.70
2022-08-22T22:20:21.502Z,26.68
2022-08-22T22:22:49.881Z,26.58
2022-08-22T22:25:39.737Z,26.59
2022-08-22T22:28:32.978Z,26.56
2022-08-22T22:31:00.312Z,26.53
2022-08-22T22:33:34.595Z,26.52
2022-08-22T22:36:18.996Z,26.48
2022-08-22T22:38:46.546Z,26.45
2022-08-22T22:41:14.077Z,26.44
2022-08-22T22:43:42.402Z,26.44
2022-08-22T22:46:09.583Z,26.43
2022-08-22T22:48:36.643Z,26.40
2022-08-22T22:51:11.352Z,26.36
2022-08-22T22:53:42.574Z,26.31
2022-08-22T22:56:14.349Z,26.28
2022-08-22T22:58:43.812Z,26.25
2022-08-22T23:01:19.341Z,26.23
2022-08-22T23:03:48.049Z,26.21
2022-08-22T23:06:20.163Z,26.20
2022-08-22T23:08:48.096Z,26.17
2022-08-22T23:11:20.336Z,26.16
2022-08-22T23:13:48.570Z,26.13
2022-08-22T23:16:24.141Z,26.12
2022-08-22T23:18:52.256Z,26.09
2022-08-22T23:21:30.410Z,26.07
2022-08-22T23:23:59.615Z,26.03
2022-08-22T23:26:28.243Z,26.02
2022-08-22T23:28:56.577Z,25.94
2022-08-22T23:31:36.819Z,25.88
2022-08-22T23:34:09.442Z,25.85
2022-08-22T23:36:37.978Z,25.77
2022-08-22T23:39:08.291Z,25.70
2022-08-22T23:41:37.037Z,25.70
2022-08-22T23:44:09.150Z,25.69
2022-08-22T23:46:42.730Z,25.65
2022-08-22T23:49:09.874Z,25.65
2022-08-22T23:51:37.067Z,25.62
2022-08-22T23:54:05.523Z,25.59
2022-08-22T23:56:40.659Z,25.59
2022-08-22T23:59:13.178Z,25.58
